sensor_id;sensor_type;location;lat;lon;timestamp;P1;durP1;ratioP1;P2;durP2;ratioP2
66127;SDS011;52925;52.436;-1.952;2022-10-20T00:00:30;11.10;;;3.87;;
66127;SDS011;52925;52.436;-1.952;2022-10-20T00:01:50;10.73;;;4.83;;
66127;SDS011;52925;52.436;-1.952;2022-10-20T00:03:11;9.03;;;4.20;;
66127;SDS011;52925;52.436;-1.952;2022-10-20T00:04:32;9.47;;;4.17;;
66127;SDS011;52925;52.436;-1.952;2022-10-20T00:05:51;9.50;;;4.23;;
66127;SDS011;52925;52.436;-1.952;2022-10-20T00:07:13;9.17;;;4.47;;
66127;SDS011;52925;52.436;-1.952;2022-10-20T00:08:34;10.70;;;4.37;;
66127;SDS011;52925;52.436;-1.952;2022-10-20T00:09:55;8.37;;;4.00;;
66127;SDS011;52925;52.436;-1.952;2022-10-20T00:11:16;8.70;;;4.30;;
66127;SDS011;52925;52.436;-1.952;2022-10-20T00:12:37;13.90;;;4.50;;
66127;SDS011;52925;52.436;-1.952;2022-10-20T00:13:59;12.77;;;4.43;;
66127;SDS011;52925;52.436;-1.952;2022-10-20T00:15:20;9.83;;;4.67;;
66127;SDS011;52925;52.436;-1.952;2022-10-20T00:16:42;11.33;;;4.63;;
66127;SDS011;52925;52.436;-1.952;2022-10-20T00:18:02;10.80;;;4.57;;
66127;SDS011;52925;52.436;-1.952;2022-10-20T00:19:23;8.77;;;4.07;;
66127;SDS011;52925;52.436;-1.952;2022-10-20T00:20:44;12.37;;;4.83;;
66127;SDS011;52925;52.436;-1.952;2022-10-20T00:22:04;12.07;;;4.70;;
66127;SDS011;52925;52.436;-1.952;2022-10-20T00:23:25;10.53;;;4.53;;
66127;SDS011;52925;52.436;-1.952;2022-10-20T00:24:45;11.70;;;4.17;;
66127;SDS011;52925;52.436;-1.952;2022-10-20T00:26:06;10.77;;;4.57;;
66127;SDS011;52925;52.436;-1.952;2022-10-20T00:27:28;9.10;;;3.97;;
66127;SDS011;52925;52.436;-1.952;2022-10-20T00:28:49;10.63;;;4.80;;
66127;SDS011;52925;52.436;-1.952;2022-10-20T00:30:10;13.10;;;4.70;;
66127;SDS011;52925;52.436;-1.952;2022-10-20T00:31:31;11.50;;;4.73;;
66127;SDS011;52925;52.436;-1.952;2022-10-20T00:32:53;12.40;;;4.83;;
66127;SDS011;52925;52.436;-1.952;2022-10-20T00:34:14;10.03;;;4.70;;
66127;SDS011;52925;52.436;-1.952;2022-10-20T00:35:36;8.37;;;4.70;;
66127;SDS011;52925;52.436;-1.952;2022-10-20T00:36:57;10.90;;;4.63;;
66127;SDS011;52925;52.436;-1.952;2022-10-20T00:38:17;10.43;;;5.07;;
66127;SDS011;52925;52.436;-1.952;2022-10-20T00:39:37;7.90;;;4.40;;
66127;SDS011;52925;52.436;-1.952;2022-10-20T00:40:58;10.60;;;4.23;;
66127;SDS011;52925;52.436;-1.952;2022-10-20T00:42:21;7.63;;;4.57;;
66127;SDS011;52925;52.436;-1.952;2022-10-20T00:43:43;9.57;;;4.80;;
66127;SDS011;52925;52.436;-1.952;2022-10-20T00:45:08;12.13;;;5.17;;
66127;SDS011;52925;52.436;-1.952;2022-10-20T00:46:32;12.10;;;5.20;;
66127;SDS011;52925;52.436;-1.952;2022-10-20T00:47:59;10.80;;;4.60;;
66127;SDS011;52925;52.436;-1.952;2022-10-20T00:49:24;13.23;;;5.10;;
66127;SDS011;52925;52.436;-1.952;2022-10-20T00:50:47;9.70;;;4.87;;
66127;SDS011;52925;52.436;-1.952;2022-10-20T00:52:09;13.17;;;4.80;;
66127;SDS011;52925;52.436;-1.952;2022-10-20T00:53:30;11.70;;;5.27;;
66127;SDS011;52925;52.436;-1.952;2022-10-20T00:54:51;13.33;;;4.90;;
66127;SDS011;52925;52.436;-1.952;2022-10-20T00:56:11;8.60;;;4.67;;
66127;SDS011;52925;52.436;-1.952;2022-10-20T00:57:33;11.30;;;4.70;;
66127;SDS011;52925;52.436;-1.952;2022-10-20T00:58:54;13.23;;;5.43;;
66127;SDS011;52925;52.436;-1.952;2022-10-20T01:00:15;11.93;;;5.47;;
66127;SDS011;52925;52.436;-1.952;2022-10-20T01:01:35;10.07;;;4.80;;
66127;SDS011;52925;52.436;-1.952;2022-10-20T01:03:00;7.03;;;4.30;;
66127;SDS011;52925;52.436;-1.952;2022-10-20T01:04:20;11.17;;;4.73;;
66127;SDS011;52925;52.436;-1.952;2022-10-20T01:05:41;11.10;;;5.10;;
66127;SDS011;52925;52.436;-1.952;2022-10-20T01:07:02;10.40;;;5.33;;
66127;SDS011;52925;52.436;-1.952;2022-10-20T01:08:22;9.73;;;4.60;;
66127;SDS011;52925;52.436;-1.952;2022-10-20T01:09:43;12.57;;;5.23;;
66127;SDS011;52925;52.436;-1.952;2022-10-20T01:11:06;11.97;;;5.83;;
66127;SDS011;52925;52.436;-1.952;2022-10-20T01:12:36;12.37;;;5.57;;
66127;SDS011;52925;52.436;-1.952;2022-10-20T01:14:13;9.20;;;5.53;;
66127;SDS011;52925;52.436;-1.952;2022-10-20T01:15:44;17.47;;;5.90;;
66127;SDS011;52925;52.436;-1.952;2022-10-20T01:17:13;9.67;;;4.60;;
66127;SDS011;52925;52.436;-1.952;2022-10-20T01:18:45;8.83;;;5.03;;
66127;SDS011;52925;52.436;-1.952;2022-10-20T01:20:26;14.67;;;5.67;;
66127;SDS011;52925;52.436;-1.952;2022-10-20T01:22:06;11.07;;;5.50;;
66127;SDS011;52925;52.436;-1.952;2022-10-20T01:25:20;11.43;;;5.53;;
66127;SDS011;52925;52.436;-1.952;2022-10-20T01:26:53;12.73;;;4.83;;
66127;SDS011;52925;52.436;-1.952;2022-10-20T01:28:49;11.90;;;5.53;;
66127;SDS011;52925;52.436;-1.952;2022-10-20T01:30:13;12.43;;;5.97;;
66127;SDS011;52925;52.436;-1.952;2022-10-20T01:31:37;13.40;;;5.50;;
66127;SDS011;52925;52.436;-1.952;2022-10-20T01:33:08;11.60;;;5.67;;
66127;SDS011;52925;52.436;-1.952;2022-10-20T01:34:38;12.40;;;6.03;;
66127;SDS011;52925;52.436;-1.952;2022-10-20T01:36:06;11.10;;;5.40;;
66127;SDS011;52925;52.436;-1.952;2022-10-20T01:37:34;14.93;;;6.37;;
66127;SDS011;52925;52.436;-1.952;2022-10-20T01:39:00;12.23;;;5.80;;
66127;SDS011;52925;52.436;-1.952;2022-10-20T01:40:26;13.90;;;6.07;;
66127;SDS011;52925;52.436;-1.952;2022-10-20T01:41:50;10.33;;;5.07;;
66127;SDS011;52925;52.436;-1.952;2022-10-20T01:43:15;12.17;;;5.27;;
66127;SDS011;52925;52.436;-1.952;2022-10-20T01:44:39;11.57;;;5.20;;
66127;SDS011;52925;52.436;-1.952;2022-10-20T01:46:01;13.37;;;5.80;;
66127;SDS011;52925;52.436;-1.952;2022-10-20T01:47:23;13.10;;;5.83;;
66127;SDS011;52925;52.436;-1.952;2022-10-20T01:48:47;10.17;;;5.00;;
66127;SDS011;52925;52.436;-1.952;2022-10-20T01:50:09;11.23;;;5.30;;
66127;SDS011;52925;52.436;-1.952;2022-10-20T01:51:30;11.53;;;5.70;;
66127;SDS011;52925;52.436;-1.952;2022-10-20T01:52:53;12.57;;;5.57;;
66127;SDS011;52925;52.436;-1.952;2022-10-20T01:54:19;11.40;;;5.70;;
66127;SDS011;52925;52.436;-1.952;2022-10-20T01:55:40;9.67;;;5.43;;
66127;SDS011;52925;52.436;-1.952;2022-10-20T01:57:06;13.43;;;6.83;;
66127;SDS011;52925;52.436;-1.952;2022-10-20T01:58:44;12.03;;;5.43;;
66127;SDS011;52925;52.436;-1.952;2022-10-20T02:00:32;10.27;;;5.50;;
66127;SDS011;52925;52.436;-1.952;2022-10-20T02:01:59;11.23;;;5.33;;
66127;SDS011;52925;52.436;-1.952;2022-10-20T02:03:31;11.47;;;5.47;;
66127;SDS011;52925;52.436;-1.952;2022-10-20T02:05:01;9.50;;;5.80;;
66127;SDS011;52925;52.436;-1.952;2022-10-20T02:06:32;13.63;;;5.93;;
66127;SDS011;52925;52.436;-1.952;2022-10-20T02:08:06;10.07;;;6.13;;
66127;SDS011;52925;52.436;-1.952;2022-10-20T02:09:31;10.87;;;5.80;;
66127;SDS011;52925;52.436;-1.952;2022-10-20T02:10:56;11.53;;;5.47;;
66127;SDS011;52925;52.436;-1.952;2022-10-20T02:12:20;11.30;;;5.50;;
66127;SDS011;52925;52.436;-1.952;2022-10-20T02:13:44;12.80;;;6.10;;
66127;SDS011;52925;52.436;-1.952;2022-10-20T02:15:05;10.70;;;5.57;;
66127;SDS011;52925;52.436;-1.952;2022-10-20T02:16:31;11.30;;;5.50;;
66127;SDS011;52925;52.436;-1.952;2022-10-20T02:17:53;14.23;;;6.17;;
66127;SDS011;52925;52.436;-1.952;2022-10-20T02:19:19;13.83;;;6.10;;
66127;SDS011;52925;52.436;-1.952;2022-10-20T02:20:43;12.40;;;5.40;;
66127;SDS011;52925;52.436;-1.952;2022-10-20T02:22:05;13.40;;;6.17;;
66127;SDS011;52925;52.436;-1.952;2022-10-20T02:23:28;13.90;;;6.37;;
66127;SDS011;52925;52.436;-1.952;2022-10-20T02:24:49;11.33;;;5.63;;
66127;SDS011;52925;52.436;-1.952;2022-10-20T02:26:12;12.73;;;6.30;;
66127;SDS011;52925;52.436;-1.952;2022-10-20T02:27:34;11.67;;;5.50;;
66127;SDS011;52925;52.436;-1.952;2022-10-20T02:28:59;13.30;;;6.53;;
66127;SDS011;52925;52.436;-1.952;2022-10-20T02:30:24;14.17;;;5.97;;
66127;SDS011;52925;52.436;-1.952;2022-10-20T02:31:45;11.87;;;6.10;;
66127;SDS011;52925;52.436;-1.952;2022-10-20T02:33:07;13.07;;;5.33;;
66127;SDS011;52925;52.436;-1.952;2022-10-20T02:34:27;11.90;;;6.07;;
66127;SDS011;52925;52.436;-1.952;2022-10-20T02:35:48;13.70;;;6.53;;
66127;SDS011;52925;52.436;-1.952;2022-10-20T02:37:13;13.43;;;6.30;;
66127;SDS011;52925;52.436;-1.952;2022-10-20T02:38:34;13.30;;;6.30;;
66127;SDS011;52925;52.436;-1.952;2022-10-20T02:39:53;13.07;;;6.67;;
66127;SDS011;52925;52.436;-1.952;2022-10-20T02:41:14;14.07;;;6.07;;
66127;SDS011;52925;52.436;-1.952;2022-10-20T02:42:34;12.87;;;5.77;;
66127;SDS011;52925;52.436;-1.952;2022-10-20T02:43:55;12.17;;;5.57;;
66127;SDS011;52925;52.436;-1.952;2022-10-20T02:45:15;13.03;;;6.60;;
66127;SDS011;52925;52.436;-1.952;2022-10-20T02:46:37;14.07;;;6.13;;
66127;SDS011;52925;52.436;-1.952;2022-10-20T02:47:58;16.70;;;6.63;;
66127;SDS011;52925;52.436;-1.952;2022-10-20T02:49:19;13.13;;;6.37;;
66127;SDS011;52925;52.436;-1.952;2022-10-20T02:50:39;13.30;;;5.67;;
66127;SDS011;52925;52.436;-1.952;2022-10-20T02:52:00;11.00;;;6.30;;
66127;SDS011;52925;52.436;-1.952;2022-10-20T02:53:20;12.10;;;5.77;;
66127;SDS011;52925;52.436;-1.952;2022-10-20T02:54:40;15.47;;;7.07;;
66127;SDS011;52925;52.436;-1.952;2022-10-20T02:56:01;12.97;;;6.67;;
66127;SDS011;52925;52.436;-1.952;2022-10-20T02:57:21;12.43;;;5.90;;
66127;SDS011;52925;52.436;-1.952;2022-10-20T02:58:42;12.73;;;5.80;;
66127;SDS011;52925;52.436;-1.952;2022-10-20T03:00:03;11.90;;;6.07;;
66127;SDS011;52925;52.436;-1.952;2022-10-20T03:01:24;13.97;;;5.77;;
66127;SDS011;52925;52.436;-1.952;2022-10-20T03:02:44;11.67;;;5.83;;
66127;SDS011;52925;52.436;-1.952;2022-10-20T03:04:07;13.37;;;6.50;;
66127;SDS011;52925;52.436;-1.952;2022-10-20T03:05:27;12.27;;;6.07;;
66127;SDS011;52925;52.436;-1.952;2022-10-20T03:06:47;16.50;;;7.03;;
66127;SDS011;52925;52.436;-1.952;2022-10-20T03:08:08;14.33;;;7.00;;
66127;SDS011;52925;52.436;-1.952;2022-10-20T03:09:27;15.43;;;7.13;;
66127;SDS011;52925;52.436;-1.952;2022-10-20T03:10:48;10.50;;;5.90;;
66127;SDS011;52925;52.436;-1.952;2022-10-20T03:12:09;12.73;;;6.67;;
66127;SDS011;52925;52.436;-1.952;2022-10-20T03:13:30;15.03;;;6.03;;
66127;SDS011;52925;52.436;-1.952;2022-10-20T03:14:50;12.33;;;5.70;;
66127;SDS011;52925;52.436;-1.952;2022-10-20T03:16:10;12.87;;;6.13;;
66127;SDS011;52925;52.436;-1.952;2022-10-20T03:17:30;13.23;;;7.07;;
66127;SDS011;52925;52.436;-1.952;2022-10-20T03:18:51;11.93;;;6.07;;
66127;SDS011;52925;52.436;-1.952;2022-10-20T03:20:12;10.40;;;6.77;;
66127;SDS011;52925;52.436;-1.952;2022-10-20T03:21:34;11.87;;;6.33;;
66127;SDS011;52925;52.436;-1.952;2022-10-20T03:22:54;12.67;;;6.37;;
66127;SDS011;52925;52.436;-1.952;2022-10-20T03:24:15;15.63;;;7.10;;
66127;SDS011;52925;52.436;-1.952;2022-10-20T03:25:36;10.90;;;6.60;;
66127;SDS011;52925;52.436;-1.952;2022-10-20T03:26:56;12.20;;;6.13;;
66127;SDS011;52925;52.436;-1.952;2022-10-20T03:28:17;12.63;;;6.60;;
66127;SDS011;52925;52.436;-1.952;2022-10-20T03:29:36;11.93;;;6.40;;
66127;SDS011;52925;52.436;-1.952;2022-10-20T03:30:57;13.63;;;7.37;;
66127;SDS011;52925;52.436;-1.952;2022-10-20T03:32:18;11.07;;;6.00;;
66127;SDS011;52925;52.436;-1.952;2022-10-20T03:33:38;10.50;;;6.40;;
66127;SDS011;52925;52.436;-1.952;2022-10-20T03:34:58;16.20;;;6.80;;
66127;SDS011;52925;52.436;-1.952;2022-10-20T03:36:20;13.97;;;6.83;;
66127;SDS011;52925;52.436;-1.952;2022-10-20T03:37:41;12.67;;;6.40;;
66127;SDS011;52925;52.436;-1.952;2022-10-20T03:39:01;12.10;;;6.77;;
66127;SDS011;52925;52.436;-1.952;2022-10-20T03:40:21;11.23;;;6.17;;
66127;SDS011;52925;52.436;-1.952;2022-10-20T03:41:41;16.10;;;7.30;;
66127;SDS011;52925;52.436;-1.952;2022-10-20T03:43:02;14.33;;;6.87;;
66127;SDS011;52925;52.436;-1.952;2022-10-20T03:44:22;11.03;;;6.20;;
66127;SDS011;52925;52.436;-1.952;2022-10-20T03:45:42;15.67;;;6.80;;
66127;SDS011;52925;52.436;-1.952;2022-10-20T03:47:03;13.17;;;7.23;;
66127;SDS011;52925;52.436;-1.952;2022-10-20T03:48:24;11.93;;;6.50;;
66127;SDS011;52925;52.436;-1.952;2022-10-20T03:49:44;12.37;;;6.97;;
66127;SDS011;52925;52.436;-1.952;2022-10-20T03:51:04;11.57;;;6.83;;
66127;SDS011;52925;52.436;-1.952;2022-10-20T03:52:28;13.57;;;6.40;;
66127;SDS011;52925;52.436;-1.952;2022-10-20T03:53:49;14.23;;;7.33;;
66127;SDS011;52925;52.436;-1.952;2022-10-20T03:55:09;11.10;;;6.77;;
66127;SDS011;52925;52.436;-1.952;2022-10-20T03:56:30;14.77;;;7.07;;
66127;SDS011;52925;52.436;-1.952;2022-10-20T03:57:50;14.03;;;7.23;;
66127;SDS011;52925;52.436;-1.952;2022-10-20T03:59:11;12.60;;;6.67;;
66127;SDS011;52925;52.436;-1.952;2022-10-20T04:00:31;14.80;;;7.23;;
66127;SDS011;52925;52.436;-1.952;2022-10-20T04:01:52;13.23;;;6.90;;
66127;SDS011;52925;52.436;-1.952;2022-10-20T04:03:12;12.03;;;6.70;;
66127;SDS011;52925;52.436;-1.952;2022-10-20T04:04:33;11.37;;;7.00;;
66127;SDS011;52925;52.436;-1.952;2022-10-20T04:05:53;15.10;;;7.40;;
66127;SDS011;52925;52.436;-1.952;2022-10-20T04:07:14;13.53;;;6.83;;
66127;SDS011;52925;52.436;-1.952;2022-10-20T04:08:35;18.63;;;7.77;;
66127;SDS011;52925;52.436;-1.952;2022-10-20T04:09:56;16.13;;;6.83;;
66127;SDS011;52925;52.436;-1.952;2022-10-20T04:11:20;15.03;;;7.97;;
66127;SDS011;52925;52.436;-1.952;2022-10-20T04:12:42;15.97;;;7.20;;
66127;SDS011;52925;52.436;-1.952;2022-10-20T04:14:02;13.43;;;7.40;;
66127;SDS011;52925;52.436;-1.952;2022-10-20T04:15:22;15.87;;;8.03;;
66127;SDS011;52925;52.436;-1.952;2022-10-20T04:16:42;14.77;;;6.97;;
66127;SDS011;52925;52.436;-1.952;2022-10-20T04:18:03;13.47;;;6.90;;
66127;SDS011;52925;52.436;-1.952;2022-10-20T04:19:23;14.53;;;7.47;;
66127;SDS011;52925;52.436;-1.952;2022-10-20T04:20:45;14.90;;;7.63;;
66127;SDS011;52925;52.436;-1.952;2022-10-20T04:22:05;13.93;;;7.30;;
66127;SDS011;52925;52.436;-1.952;2022-10-20T04:23:26;13.20;;;7.57;;
66127;SDS011;52925;52.436;-1.952;2022-10-20T04:24:48;13.47;;;7.30;;
66127;SDS011;52925;52.436;-1.952;2022-10-20T04:26:08;14.17;;;7.73;;
66127;SDS011;52925;52.436;-1.952;2022-10-20T04:27:30;17.53;;;7.40;;
66127;SDS011;52925;52.436;-1.952;2022-10-20T04:28:51;16.73;;;7.57;;
66127;SDS011;52925;52.436;-1.952;2022-10-20T04:30:11;14.43;;;7.93;;
66127;SDS011;52925;52.436;-1.952;2022-10-20T04:31:32;13.67;;;7.07;;
66127;SDS011;52925;52.436;-1.952;2022-10-20T04:32:52;17.63;;;8.13;;
66127;SDS011;52925;52.436;-1.952;2022-10-20T04:34:13;15.00;;;7.70;;
66127;SDS011;52925;52.436;-1.952;2022-10-20T04:35:33;14.73;;;7.80;;
66127;SDS011;52925;52.436;-1.952;2022-10-20T04:36:54;13.57;;;7.20;;
66127;SDS011;52925;52.436;-1.952;2022-10-20T04:38:15;13.13;;;7.43;;
66127;SDS011;52925;52.436;-1.952;2022-10-20T04:39:35;15.83;;;8.10;;
66127;SDS011;52925;52.436;-1.952;2022-10-20T04:40:58;14.70;;;7.33;;
66127;SDS011;52925;52.436;-1.952;2022-10-20T04:42:22;12.40;;;6.90;;
66127;SDS011;52925;52.436;-1.952;2022-10-20T04:43:42;12.63;;;7.33;;
66127;SDS011;52925;52.436;-1.952;2022-10-20T04:45:08;14.90;;;7.93;;
66127;SDS011;52925;52.436;-1.952;2022-10-20T04:46:28;13.07;;;8.17;;
66127;SDS011;52925;52.436;-1.952;2022-10-20T04:47:49;15.83;;;8.40;;
66127;SDS011;52925;52.436;-1.952;2022-10-20T04:49:10;16.10;;;8.03;;
66127;SDS011;52925;52.436;-1.952;2022-10-20T04:50:30;18.57;;;8.43;;
66127;SDS011;52925;52.436;-1.952;2022-10-20T04:51:58;15.83;;;8.13;;
66127;SDS011;52925;52.436;-1.952;2022-10-20T04:53:19;16.40;;;8.57;;
66127;SDS011;52925;52.436;-1.952;2022-10-20T04:54:40;19.33;;;7.80;;
66127;SDS011;52925;52.436;-1.952;2022-10-20T04:56:02;16.47;;;8.17;;
66127;SDS011;52925;52.436;-1.952;2022-10-20T04:57:24;18.13;;;8.57;;
66127;SDS011;52925;52.436;-1.952;2022-10-20T04:58:45;16.73;;;8.50;;
66127;SDS011;52925;52.436;-1.952;2022-10-20T05:00:07;16.17;;;7.47;;
66127;SDS011;52925;52.436;-1.952;2022-10-20T05:01:29;17.30;;;8.57;;
66127;SDS011;52925;52.436;-1.952;2022-10-20T05:02:50;15.93;;;7.80;;
66127;SDS011;52925;52.436;-1.952;2022-10-20T05:04:10;18.63;;;9.10;;
66127;SDS011;52925;52.436;-1.952;2022-10-20T05:05:31;16.07;;;8.47;;
66127;SDS011;52925;52.436;-1.952;2022-10-20T05:06:51;21.07;;;8.97;;
66127;SDS011;52925;52.436;-1.952;2022-10-20T05:08:13;19.23;;;8.17;;
66127;SDS011;52925;52.436;-1.952;2022-10-20T05:09:33;18.33;;;9.07;;
66127;SDS011;52925;52.436;-1.952;2022-10-20T05:10:53;17.73;;;9.13;;
66127;SDS011;52925;52.436;-1.952;2022-10-20T05:12:15;20.27;;;9.03;;
66127;SDS011;52925;52.436;-1.952;2022-10-20T05:13:35;20.13;;;9.17;;
66127;SDS011;52925;52.436;-1.952;2022-10-20T05:14:55;17.73;;;9.33;;
66127;SDS011;52925;52.436;-1.952;2022-10-20T05:16:16;20.43;;;8.40;;
66127;SDS011;52925;52.436;-1.952;2022-10-20T05:17:38;18.60;;;9.17;;
66127;SDS011;52925;52.436;-1.952;2022-10-20T05:18:59;21.27;;;9.47;;
66127;SDS011;52925;52.436;-1.952;2022-10-20T05:20:20;16.33;;;8.40;;
66127;SDS011;52925;52.436;-1.952;2022-10-20T05:21:41;15.87;;;8.57;;
66127;SDS011;52925;52.436;-1.952;2022-10-20T05:23:02;15.93;;;7.97;;
66127;SDS011;52925;52.436;-1.952;2022-10-20T05:24:21;16.70;;;8.17;;
66127;SDS011;52925;52.436;-1.952;2022-10-20T05:25:42;21.47;;;9.20;;
66127;SDS011;52925;52.436;-1.952;2022-10-20T05:27:03;18.90;;;9.63;;
66127;SDS011;52925;52.436;-1.952;2022-10-20T05:28:25;18.90;;;9.17;;
66127;SDS011;52925;52.436;-1.952;2022-10-20T05:29:46;23.93;;;9.73;;
66127;SDS011;52925;52.436;-1.952;2022-10-20T05:31:07;20.87;;;9.13;;
66127;SDS011;52925;52.436;-1.952;2022-10-20T05:32:28;16.83;;;9.00;;
66127;SDS011;52925;52.436;-1.952;2022-10-20T05:33:50;18.47;;;8.87;;
66127;SDS011;52925;52.436;-1.952;2022-10-20T05:35:12;21.07;;;10.43;;
66127;SDS011;52925;52.436;-1.952;2022-10-20T05:36:33;21.17;;;9.43;;
66127;SDS011;52925;52.436;-1.952;2022-10-20T05:37:53;17.27;;;9.47;;
66127;SDS011;52925;52.436;-1.952;2022-10-20T05:39:13;18.90;;;9.43;;
66127;SDS011;52925;52.436;-1.952;2022-10-20T05:40:34;16.77;;;8.77;;
66127;SDS011;52925;52.436;-1.952;2022-10-20T05:41:55;19.00;;;9.60;;
66127;SDS011;52925;52.436;-1.952;2022-10-20T05:43:16;22.37;;;10.47;;
66127;SDS011;52925;52.436;-1.952;2022-10-20T05:44:38;16.97;;;9.53;;
66127;SDS011;52925;52.436;-1.952;2022-10-20T05:45:59;23.17;;;9.47;;
66127;SDS011;52925;52.436;-1.952;2022-10-20T05:47:19;18.83;;;10.27;;
66127;SDS011;52925;52.436;-1.952;2022-10-20T05:48:39;17.57;;;9.30;;
66127;SDS011;52925;52.436;-1.952;2022-10-20T05:49:59;17.17;;;9.20;;
66127;SDS011;52925;52.436;-1.952;2022-10-20T05:51:21;16.80;;;8.67;;
66127;SDS011;52925;52.436;-1.952;2022-10-20T05:52:42;21.57;;;9.43;;
66127;SDS011;52925;52.436;-1.952;2022-10-20T05:54:03;19.57;;;10.23;;
66127;SDS011;52925;52.436;-1.952;2022-10-20T05:55:23;21.77;;;9.40;;
66127;SDS011;52925;52.436;-1.952;2022-10-20T05:56:44;19.00;;;9.73;;
66127;SDS011;52925;52.436;-1.952;2022-10-20T05:58:05;18.97;;;9.80;;
66127;SDS011;52925;52.436;-1.952;2022-10-20T05:59:24;23.23;;;10.10;;
66127;SDS011;52925;52.436;-1.952;2022-10-20T06:00:46;21.17;;;9.83;;
66127;SDS011;52925;52.436;-1.952;2022-10-20T06:02:11;20.90;;;10.37;;
66127;SDS011;52925;52.436;-1.952;2022-10-20T06:03:32;15.93;;;9.03;;
66127;SDS011;52925;52.436;-1.952;2022-10-20T06:04:52;19.43;;;9.40;;
66127;SDS011;52925;52.436;-1.952;2022-10-20T06:06:13;18.53;;;9.30;;
66127;SDS011;52925;52.436;-1.952;2022-10-20T06:07:33;18.57;;;9.50;;
66127;SDS011;52925;52.436;-1.952;2022-10-20T06:08:54;17.17;;;8.97;;
66127;SDS011;52925;52.436;-1.952;2022-10-20T06:10:14;17.07;;;9.20;;
66127;SDS011;52925;52.436;-1.952;2022-10-20T06:11:35;18.30;;;8.90;;
66127;SDS011;52925;52.436;-1.952;2022-10-20T06:12:56;20.87;;;9.50;;
66127;SDS011;52925;52.436;-1.952;2022-10-20T06:14:16;18.77;;;9.83;;
66127;SDS011;52925;52.436;-1.952;2022-10-20T06:15:39;19.33;;;9.77;;
66127;SDS011;52925;52.436;-1.952;2022-10-20T06:17:00;18.80;;;8.80;;
66127;SDS011;52925;52.436;-1.952;2022-10-20T06:18:21;20.60;;;9.90;;
66127;SDS011;52925;52.436;-1.952;2022-10-20T06:19:42;19.47;;;9.90;;
66127;SDS011;52925;52.436;-1.952;2022-10-20T06:21:03;20.07;;;9.97;;
66127;SDS011;52925;52.436;-1.952;2022-10-20T06:22:24;20.10;;;9.93;;
66127;SDS011;52925;52.436;-1.952;2022-10-20T06:23:45;22.67;;;9.43;;
66127;SDS011;52925;52.436;-1.952;2022-10-20T06:25:06;16.33;;;9.00;;
66127;SDS011;52925;52.436;-1.952;2022-10-20T06:26:28;17.83;;;9.17;;
66127;SDS011;52925;52.436;-1.952;2022-10-20T06:27:50;19.47;;;9.53;;
66127;SDS011;52925;52.436;-1.952;2022-10-20T06:29:12;19.90;;;9.27;;
66127;SDS011;52925;52.436;-1.952;2022-10-20T06:30:33;16.97;;;9.20;;
66127;SDS011;52925;52.436;-1.952;2022-10-20T06:31:53;17.13;;;9.00;;
66127;SDS011;52925;52.436;-1.952;2022-10-20T06:33:16;17.97;;;9.17;;
66127;SDS011;52925;52.436;-1.952;2022-10-20T06:34:35;16.43;;;9.87;;
66127;SDS011;52925;52.436;-1.952;2022-10-20T06:35:59;17.70;;;8.83;;
66127;SDS011;52925;52.436;-1.952;2022-10-20T06:37:19;18.27;;;9.27;;
66127;SDS011;52925;52.436;-1.952;2022-10-20T06:38:40;17.87;;;8.90;;
66127;SDS011;52925;52.436;-1.952;2022-10-20T06:40:01;15.93;;;8.87;;
66127;SDS011;52925;52.436;-1.952;2022-10-20T06:41:23;19.87;;;9.73;;
66127;SDS011;52925;52.436;-1.952;2022-10-20T06:42:45;19.03;;;9.90;;
66127;SDS011;52925;52.436;-1.952;2022-10-20T06:44:04;20.17;;;9.50;;
66127;SDS011;52925;52.436;-1.952;2022-10-20T06:45:26;20.07;;;9.40;;
66127;SDS011;52925;52.436;-1.952;2022-10-20T06:46:45;18.03;;;9.40;;
66127;SDS011;52925;52.436;-1.952;2022-10-20T06:48:06;19.00;;;9.90;;
66127;SDS011;52925;52.436;-1.952;2022-10-20T06:49:28;17.50;;;9.37;;
66127;SDS011;52925;52.436;-1.952;2022-10-20T06:50:49;15.97;;;9.30;;
66127;SDS011;52925;52.436;-1.952;2022-10-20T06:52:13;19.40;;;9.20;;
66127;SDS011;52925;52.436;-1.952;2022-10-20T06:53:35;14.70;;;8.83;;
66127;SDS011;52925;52.436;-1.952;2022-10-20T06:54:54;19.20;;;9.63;;
66127;SDS011;52925;52.436;-1.952;2022-10-20T06:56:16;19.77;;;9.80;;
66127;SDS011;52925;52.436;-1.952;2022-10-20T06:57:38;16.07;;;8.53;;
66127;SDS011;52925;52.436;-1.952;2022-10-20T06:59:00;16.87;;;8.97;;
66127;SDS011;52925;52.436;-1.952;2022-10-20T07:00:22;17.13;;;9.30;;
66127;SDS011;52925;52.436;-1.952;2022-10-20T07:01:42;17.73;;;9.93;;
66127;SDS011;52925;52.436;-1.952;2022-10-20T07:03:02;20.30;;;9.73;;
66127;SDS011;52925;52.436;-1.952;2022-10-20T07:04:22;17.70;;;9.13;;
66127;SDS011;52925;52.436;-1.952;2022-10-20T07:05:45;18.40;;;8.47;;
66127;SDS011;52925;52.436;-1.952;2022-10-20T07:07:06;18.33;;;9.20;;
66127;SDS011;52925;52.436;-1.952;2022-10-20T07:08:27;18.63;;;9.30;;
66127;SDS011;52925;52.436;-1.952;2022-10-20T07:09:48;18.60;;;10.30;;
66127;SDS011;52925;52.436;-1.952;2022-10-20T07:11:09;19.00;;;9.67;;
66127;SDS011;52925;52.436;-1.952;2022-10-20T07:12:31;17.80;;;10.10;;
66127;SDS011;52925;52.436;-1.952;2022-10-20T07:13:52;19.93;;;9.80;;
66127;SDS011;52925;52.436;-1.952;2022-10-20T07:15:14;17.63;;;9.37;;
66127;SDS011;52925;52.436;-1.952;2022-10-20T07:16:34;18.33;;;9.90;;
66127;SDS011;52925;52.436;-1.952;2022-10-20T07:17:55;22.83;;;9.40;;
66127;SDS011;52925;52.436;-1.952;2022-10-20T07:19:16;18.03;;;9.47;;
66127;SDS011;52925;52.436;-1.952;2022-10-20T07:20:37;18.60;;;9.57;;
66127;SDS011;52925;52.436;-1.952;2022-10-20T07:21:58;18.97;;;9.37;;
66127;SDS011;52925;52.436;-1.952;2022-10-20T07:23:19;18.17;;;9.73;;
66127;SDS011;52925;52.436;-1.952;2022-10-20T07:24:40;19.17;;;9.90;;
66127;SDS011;52925;52.436;-1.952;2022-10-20T07:26:01;17.43;;;9.93;;
66127;SDS011;52925;52.436;-1.952;2022-10-20T07:27:23;19.27;;;9.47;;
66127;SDS011;52925;52.436;-1.952;2022-10-20T07:28:44;15.73;;;8.80;;
66127;SDS011;52925;52.436;-1.952;2022-10-20T07:30:06;17.27;;;8.90;;
66127;SDS011;52925;52.436;-1.952;2022-10-20T07:31:27;20.47;;;10.20;;
66127;SDS011;52925;52.436;-1.952;2022-10-20T07:32:48;16.27;;;8.97;;
66127;SDS011;52925;52.436;-1.952;2022-10-20T07:34:10;14.43;;;9.10;;
66127;SDS011;52925;52.436;-1.952;2022-10-20T07:35:32;17.07;;;9.53;;
66127;SDS011;52925;52.436;-1.952;2022-10-20T07:36:54;15.10;;;9.07;;
66127;SDS011;52925;52.436;-1.952;2022-10-20T07:38:17;14.90;;;9.17;;
66127;SDS011;52925;52.436;-1.952;2022-10-20T07:39:37;18.10;;;9.40;;
66127;SDS011;52925;52.436;-1.952;2022-10-20T07:41:00;14.93;;;9.47;;
66127;SDS011;52925;52.436;-1.952;2022-10-20T07:42:20;16.67;;;9.70;;
66127;SDS011;52925;52.436;-1.952;2022-10-20T07:43:42;19.03;;;9.77;;
66127;SDS011;52925;52.436;-1.952;2022-10-20T07:45:03;16.70;;;8.97;;
66127;SDS011;52925;52.436;-1.952;2022-10-20T07:46:25;17.50;;;9.47;;
66127;SDS011;52925;52.436;-1.952;2022-10-20T07:47:46;18.80;;;10.27;;
66127;SDS011;52925;52.436;-1.952;2022-10-20T07:49:07;18.10;;;9.87;;
66127;SDS011;52925;52.436;-1.952;2022-10-20T07:50:28;15.53;;;9.23;;
66127;SDS011;52925;52.436;-1.952;2022-10-20T07:51:49;15.93;;;9.43;;
66127;SDS011;52925;52.436;-1.952;2022-10-20T07:53:10;18.13;;;10.47;;
66127;SDS011;52925;52.436;-1.952;2022-10-20T07:54:32;17.40;;;9.90;;
66127;SDS011;52925;52.436;-1.952;2022-10-20T07:55:53;17.07;;;9.23;;
66127;SDS011;52925;52.436;-1.952;2022-10-20T07:57:14;19.10;;;9.70;;
66127;SDS011;52925;52.436;-1.952;2022-10-20T07:58:35;17.40;;;9.10;;
66127;SDS011;52925;52.436;-1.952;2022-10-20T07:59:55;18.10;;;11.10;;
66127;SDS011;52925;52.436;-1.952;2022-10-20T08:01:16;17.93;;;9.43;;